Time;durP1;ratioP1;P1;durP2;ratioP2;P2;SDS_P1;SDS_P2;PMS_P1;PMS_P2;Temp;Humidity;BMP_temperature;BMP_pressure;BME280_temperature;BME280_humidity;BME280_pressure;Samples;Min_cycle;Max_cycle;Signal;HPM_P1;HPM_P2
2022/04/17 00:02:05;;;;;;;11.80;6.68;;;6.40;99.90;;;;;;5102677;28;20020;-67
2022/04/17 00:04:31;;;;;;;12.85;6.90;;;6.40;99.90;;;;;;5102207;28;20036;-67
2022/04/17 00:06:57;;;;;;;11.32;6.30;;;6.40;99.90;;;;;;5101308;28;20047;-68
2022/04/17 00:09:22;;;;;;;9.15;5.90;;;6.40;99.90;;;;;;5102937;28;20032;-67
2022/04/17 00:11:48;;;;;;;11.75;6.28;;;6.40;99.90;;;;;;5100872;28;20031;-67
2022/04/17 00:14:14;;;;;;;10.50;6.50;;;6.40;99.90;;;;;;5102178;28;20048;-67
2022/04/17 00:16:40;;;;;;;12.15;6.70;;;6.40;99.90;;;;;;5082623;28;20031;-68
2022/04/17 00:19:07;;;;;;;14.82;6.38;;;6.40;99.90;;;;;;5102448;28;20392;-67
2022/04/17 00:21:33;;;;;;;11.45;6.18;;;6.30;99.90;;;;;;5102164;28;20021;-67
2022/04/17 00:23:59;;;;;;;11.77;6.80;;;6.30;99.90;;;;;;5101261;28;20515;-67
2022/04/17 00:26:24;;;;;;;11.75;6.35;;;6.20;99.90;;;;;;5102696;28;20017;-68
2022/04/17 00:28:50;;;;;;;11.75;6.32;;;6.20;99.90;;;;;;5100702;28;20012;-68
2022/04/17 00:31:16;;;;;;;11.25;6.50;;;6.10;99.90;;;;;;5067934;28;20048;-67
2022/04/17 00:33:41;;;;;;;10.65;6.53;;;6.10;99.90;;;;;;5100431;28;20616;-68
2022/04/17 00:36:07;;;;;;;12.02;6.95;;;6.00;99.90;;;;;;5102566;28;20082;-68
2022/04/17 00:38:32;;;;;;;13.43;7.55;;;6.00;99.90;;;;;;5101604;28;20050;-68
2022/04/17 00:40:58;;;;;;;12.02;7.35;;;5.90;99.90;;;;;;5101533;28;20030;-68
2022/04/17 00:43:34;;;;;;;12.93;7.20;;;5.90;99.90;;;;;;5102492;28;20028;-68
2022/04/17 00:46:00;;;;;;;12.88;6.38;;;5.90;99.90;;;;;;5100428;28;20028;-68
2022/04/17 00:48:26;;;;;;;11.90;7.05;;;5.80;99.90;;;;;;5102689;28;20552;-68
2022/04/17 00:50:55;;;;;;;10.85;7.20;;;5.80;99.90;;;;;;5100698;28;20031;-68
2022/04/17 00:53:23;;;;;;;12.13;7.20;;;5.80;99.90;;;;;;5102073;28;20044;-67
2022/04/17 00:55:49;;;;;;;16.98;8.00;;;5.70;99.90;;;;;;5101738;28;20016;-68
2022/04/17 00:58:15;;;;;;;11.85;7.25;;;5.70;99.90;;;;;;5101033;28;20035;-68
2022/04/17 01:00:41;;;;;;;11.77;7.10;;;5.70;99.90;;;;;;5102309;28;20021;-68
2022/04/17 01:03:07;;;;;;;11.85;7.15;;;5.60;99.90;;;;;;5100356;28;20050;-68
2022/04/17 01:05:33;;;;;;;13.68;7.90;;;5.60;99.90;;;;;;5084243;28;20080;-68
2022/04/17 01:07:59;;;;;;;12.30;7.32;;;5.50;99.90;;;;;;5102908;28;20020;-68
2022/04/17 01:10:25;;;;;;;13.35;7.07;;;5.50;99.90;;;;;;5105866;28;20467;-68
2022/04/17 01:12:58;;;;;;;13.70;8.45;;;5.40;99.90;;;;;;5104832;28;20092;-68
2022/04/17 01:15:24;;;;;;;12.48;6.88;;;5.40;99.90;;;;;;5103988;28;20084;-69
2022/04/17 01:17:49;;;;;;;13.85;7.60;;;5.30;99.90;;;;;;5105803;28;20102;-68
2022/04/17 01:20:16;;;;;;;14.30;7.80;;;5.30;99.90;;;;;;5085392;28;20017;-68
2022/04/17 01:22:49;;;;;;;14.70;8.55;;;5.30;99.90;;;;;;5105788;28;20040;-68
2022/04/17 01:28:01;;;;;;;16.45;7.90;;;5.20;99.90;;;;;;5105034;28;20043;-68
2022/04/17 01:30:27;;;;;;;14.43;8.50;;;5.20;99.90;;;;;;5105467;28;20073;-68
2022/04/17 01:32:53;;;;;;;15.38;8.02;;;5.20;99.90;;;;;;5103412;28;20040;-68
2022/04/17 01:35:22;;;;;;;13.55;7.57;;;5.30;99.90;;;;;;5087484;28;20054;-68
2022/04/17 01:37:49;;;;;;;15.15;8.95;;;5.30;99.90;;;;;;5103257;28;20028;-68
2022/04/17 01:40:15;;;;;;;13.88;8.10;;;5.30;99.90;;;;;;5105353;28;20054;-68
2022/04/17 01:42:41;;;;;;;14.68;7.97;;;5.20;99.90;;;;;;5103897;28;20083;-68
2022/04/17 01:45:07;;;;;;;14.80;8.93;;;5.20;99.90;;;;;;5103897;28;20530;-67
2022/04/17 01:47:32;;;;;;;13.88;8.00;;;5.20;99.90;;;;;;5105113;28;20028;-69
2022/04/17 01:49:59;;;;;;;16.75;9.07;;;5.20;99.90;;;;;;5103277;28;20036;-68
2022/04/17 01:52:25;;;;;;;15.02;9.10;;;5.20;99.90;;;;;;5086754;28;20028;-67
2022/04/17 01:54:51;;;;;;;13.70;8.20;;;5.10;99.90;;;;;;5102454;28;20051;-67
2022/04/17 01:57:17;;;;;;;16.00;8.32;;;5.20;99.90;;;;;;5086889;28;20024;-67
2022/04/17 01:59:42;;;;;;;17.15;8.63;;;5.20;99.90;;;;;;5085054;28;20092;-69
2022/04/17 02:02:08;;;;;;;13.55;8.52;;;5.20;99.90;;;;;;5086107;28;20032;-67
2022/04/17 02:04:35;;;;;;;13.50;8.35;;;5.10;99.90;;;;;;5104633;28;20024;-67
2022/04/17 02:07:05;;;;;;;16.33;9.18;;;5.00;99.90;;;;;;5102898;28;20089;-67
2022/04/17 02:09:31;;;;;;;15.13;8.00;;;4.90;99.90;;;;;;5104836;28;20058;-67
2022/04/17 02:11:57;;;;;;;15.93;8.85;;;4.80;99.90;;;;;;5102653;28;20024;-67
2022/04/17 02:14:22;;;;;;;19.33;8.55;;;4.70;99.90;;;;;;5104317;28;20047;-68
2022/04/17 02:16:50;;;;;;;16.98;9.10;;;4.80;99.90;;;;;;5103082;28;20532;-68
2022/04/17 02:19:16;;;;;;;15.45;8.65;;;4.80;99.90;;;;;;5104034;28;20024;-68
2022/04/17 02:21:42;;;;;;;16.27;8.10;;;4.80;99.90;;;;;;5104488;28;20031;-68
2022/04/17 02:24:07;;;;;;;14.80;8.85;;;4.80;99.90;;;;;;5102757;28;20028;-68
2022/04/17 02:26:33;;;;;;;15.90;9.07;;;4.70;99.90;;;;;;5104648;28;20024;-68
2022/04/17 02:29:02;;;;;;;18.10;9.65;;;4.70;99.90;;;;;;5102707;28;20044;-68
2022/04/17 02:31:28;;;;;;;15.95;9.73;;;4.60;99.90;;;;;;5104455;28;20052;-68
2022/04/17 02:33:54;;;;;;;16.13;9.18;;;4.60;99.90;;;;;;5084257;28;20597;-68
2022/04/17 02:36:21;;;;;;;13.93;8.55;;;4.60;99.90;;;;;;5104051;28;20020;-68
2022/04/17 02:38:46;;;;;;;14.45;9.13;;;4.50;99.90;;;;;;5103871;28;20024;-68
2022/04/17 02:41:12;;;;;;;16.17;9.05;;;4.50;99.90;;;;;;5102655;28;20056;-68
2022/04/17 02:43:38;;;;;;;15.82;10.05;;;4.40;99.90;;;;;;5085790;28;20020;-68
2022/04/17 02:46:03;;;;;;;15.00;8.75;;;4.50;99.90;;;;;;5102308;28;20017;-68
2022/04/17 02:48:29;;;;;;;18.75;10.10;;;4.40;99.90;;;;;;5104110;28;20024;-68
2022/04/17 02:50:55;;;;;;;17.35;10.32;;;4.40;99.90;;;;;;5083884;28;20157;-68
2022/04/17 02:53:21;;;;;;;17.08;9.15;;;4.40;99.90;;;;;;5085453;28;20115;-67
2022/04/17 02:55:47;;;;;;;15.38;8.93;;;4.40;99.90;;;;;;5103303;28;20107;-69
2022/04/17 02:58:14;;;;;;;14.43;8.93;;;4.40;99.90;;;;;;5101108;28;20454;-68
2022/04/17 03:06:10;;;;;;;17.73;9.88;;;4.30;99.90;;;;;;5103897;28;20047;-68
2022/04/17 03:08:39;;;;;;;15.43;9.82;;;4.20;99.90;;;;;;5103157;28;20032;-68
2022/04/17 03:11:04;;;;;;;18.10;9.80;;;4.20;99.90;;;;;;5102197;28;20054;-68
2022/04/17 03:13:31;;;;;;;16.63;9.80;;;4.20;99.90;;;;;;5103545;28;20032;-68
2022/04/17 03:15:57;;;;;;;17.15;10.10;;;4.20;99.90;;;;;;5101014;28;20036;-68
2022/04/17 03:18:23;;;;;;;17.80;10.00;;;4.10;99.90;;;;;;5103538;28;20453;-68
2022/04/17 03:20:48;;;;;;;14.95;10.00;;;4.10;99.90;;;;;;5066485;28;20107;-68
2022/04/17 03:23:14;;;;;;;17.05;9.68;;;4.10;99.90;;;;;;5103338;28;20032;-68
2022/04/17 03:25:40;;;;;;;14.40;9.32;;;4.00;99.90;;;;;;5102731;28;20084;-68
2022/04/17 03:28:06;;;;;;;16.77;9.80;;;3.90;99.90;;;;;;5102200;28;20039;-67
2022/04/17 03:30:32;;;;;;;16.83;10.00;;;3.90;99.90;;;;;;5102825;28;20021;-68
2022/04/17 03:32:59;;;;;;;17.02;9.77;;;3.80;99.90;;;;;;5101151;28;20032;-68
2022/04/17 03:35:25;;;;;;;16.73;10.38;;;3.90;99.90;;;;;;5103194;28;20489;-68
2022/04/17 03:37:53;;;;;;;17.30;9.93;;;3.80;99.90;;;;;;5101106;28;20037;-68
2022/04/17 03:40:19;;;;;;;15.70;10.07;;;3.80;99.90;;;;;;5103419;28;20031;-68
2022/04/17 03:42:45;;;;;;;18.50;10.73;;;3.70;99.90;;;;;;5102235;28;20035;-68
2022/04/17 03:45:14;;;;;;;17.35;10.43;;;3.70;99.90;;;;;;5101615;28;20024;-68
2022/04/17 03:47:40;;;;;;;16.50;10.75;;;3.80;99.90;;;;;;5103167;28;20024;-68
2022/04/17 03:50:07;;;;;;;14.95;10.00;;;3.70;99.90;;;;;;5100997;28;20059;-68
2022/04/17 03:52:44;;;;;;;17.42;10.25;;;3.70;99.90;;;;;;5084914;28;20107;-68
2022/04/17 03:55:10;;;;;;;17.60;11.43;;;3.70;99.90;;;;;;5100869;28;20480;-68
2022/04/17 03:57:36;;;;;;;16.60;9.85;;;3.80;99.90;;;;;;5102831;28;20020;-68
2022/04/17 04:00:05;;;;;;;15.43;9.82;;;3.90;99.90;;;;;;5067652;28;20102;-68
2022/04/17 04:02:31;;;;;;;18.30;11.02;;;3.90;99.90;;;;;;5101475;28;20021;-68
2022/04/17 04:04:57;;;;;;;19.17;11.23;;;3.80;99.90;;;;;;5103033;28;20020;-68
2022/04/17 04:07:23;;;;;;;15.25;10.35;;;3.80;99.90;;;;;;5100898;28;20024;-68
2022/04/17 04:09:49;;;;;;;16.33;10.32;;;3.80;99.90;;;;;;5103025;28;20024;-68
2022/04/17 04:12:15;;;;;;;17.20;10.80;;;3.80;99.90;;;;;;5100902;28;20032;-68
2022/04/17 04:14:40;;;;;;;18.95;10.57;;;3.80;99.90;;;;;;5102215;28;20036;-68
2022/04/17 04:17:06;;;;;;;17.23;10.10;;;3.90;99.90;;;;;;5083957;28;20477;-68
2022/04/17 04:19:32;;;;;;;19.45;11.23;;;3.90;99.90;;;;;;5083397;28;20024;-68
2022/04/17 04:21:57;;;;;;;16.35;9.50;;;4.00;99.90;;;;;;5102820;28;20055;-68
2022/04/17 04:24:24;;;;;;;17.52;10.38;;;4.00;99.90;;;;;;5100725;28;20063;-68
2022/04/17 04:29:38;;;;;;;16.90;10.32;;;4.00;99.90;;;;;;5101448;28;20115;-68
2022/04/17 04:32:05;;;;;;;17.38;10.85;;;4.10;99.90;;;;;;5102186;28;20036;-68
2022/04/17 04:34:30;;;;;;;17.50;10.50;;;4.10;99.90;;;;;;5102455;28;20036;-68
2022/04/17 04:36:56;;;;;;;17.48;9.98;;;4.10;99.90;;;;;;5100944;28;20023;-69
2022/04/17 04:39:22;;;;;;;17.63;10.60;;;4.00;99.90;;;;;;5103010;28;20073;-68
2022/04/17 04:41:48;;;;;;;18.83;10.82;;;4.10;99.90;;;;;;5101297;28;20019;-69
2022/04/17 04:44:13;;;;;;;18.73;11.80;;;4.00;99.90;;;;;;5106153;28;20032;-68
2022/04/17 04:46:39;;;;;;;17.30;10.70;;;4.00;99.90;;;;;;5104492;28;20032;-68
2022/04/17 04:51:49;;;;;;;18.77;11.20;;;4.00;99.90;;;;;;5106690;28;20047;-68
2022/04/17 04:54:15;;;;;;;17.08;10.57;;;3.90;99.90;;;;;;5103979;28;20515;-68
2022/04/17 04:56:41;;;;;;;17.40;10.52;;;3.90;99.90;;;;;;5106251;28;20024;-70
2022/04/17 04:59:09;;;;;;;16.77;10.45;;;3.90;99.90;;;;;;5104108;28;20040;-68
2022/04/17 05:01:34;;;;;;;15.57;9.95;;;3.90;99.90;;;;;;5106236;28;20051;-68
2022/04/17 05:04:00;;;;;;;16.58;9.75;;;3.80;99.90;;;;;;5104895;28;20016;-68
2022/04/17 05:06:26;;;;;;;16.13;10.20;;;3.90;99.90;;;;;;5070413;28;20028;-68
2022/04/17 05:08:51;;;;;;;18.15;10.60;;;4.00;99.90;;;;;;5105942;28;20024;-67
2022/04/17 05:11:18;;;;;;;19.52;9.93;;;4.00;99.90;;;;;;5104122;28;20095;-68
2022/04/17 05:13:44;;;;;;;19.00;10.77;;;4.00;99.90;;;;;;5105377;28;20477;-68
2022/04/17 05:16:10;;;;;;;18.23;10.93;;;4.10;99.90;;;;;;5085752;28;20034;-67
2022/04/17 05:18:36;;;;;;;14.93;10.95;;;4.30;99.90;;;;;;5105877;28;20031;-68
2022/04/17 05:21:02;;;;;;;17.15;11.00;;;4.40;99.90;;;;;;5104287;28;20024;-68
2022/04/17 05:23:29;;;;;;;17.75;10.65;;;4.40;99.90;;;;;;5105253;28;20107;-68
2022/04/17 05:25:57;;;;;;;16.65;11.15;;;4.50;99.90;;;;;;5105463;28;20072;-68
2022/04/17 05:28:23;;;;;;;17.60;10.95;;;4.50;99.90;;;;;;5103549;28;20045;-68
2022/04/17 05:30:50;;;;;;;17.38;9.98;;;4.70;99.90;;;;;;5087541;28;20036;-68
2022/04/17 05:33:20;;;;;;;16.05;10.48;;;4.70;99.90;;;;;;5085267;28;20028;-68
2022/04/17 05:35:45;;;;;;;15.30;9.65;;;4.80;99.90;;;;;;5105793;28;20024;-68
2022/04/17 05:38:11;;;;;;;17.67;10.43;;;4.80;99.90;;;;;;5103919;28;20066;-68
2022/04/17 05:40:42;;;;;;;17.23;9.95;;;5.00;99.90;;;;;;5104954;28;20028;-69
2022/04/17 05:43:09;;;;;;;19.17;10.80;;;5.20;99.90;;;;;;5105465;28;20040;-68
2022/04/17 05:45:35;;;;;;;16.40;10.70;;;5.40;99.90;;;;;;5084635;28;20331;-68
2022/04/17 05:48:04;;;;;;;18.92;10.48;;;5.90;99.90;;;;;;5105364;28;20020;-68
2022/04/17 05:50:30;;;;;;;17.67;9.73;;;6.60;99.90;;;;;;5103093;28;20023;-68
2022/04/17 05:52:56;;;;;;;17.98;10.07;;;7.20;99.90;;;;;;5104797;28;20042;-68
2022/04/17 05:55:22;;;;;;;15.43;9.90;;;7.80;99.90;;;;;;5103629;28;20040;-68
2022/04/17 05:57:48;;;;;;;16.23;10.40;;;7.80;99.90;;;;;;5104280;28;20035;-68
2022/04/17 06:00:16;;;;;;;21.00;9.80;;;7.90;99.90;;;;;;5104827;28;20051;-68
2022/04/17 06:02:46;;;;;;;16.92;10.30;;;8.30;99.90;;;;;;5102858;28;20032;-68
2022/04/17 06:05:13;;;;;;;20.73;10.52;;;8.70;99.90;;;;;;5104922;28;20024;-69
2022/04/17 06:07:39;;;;;;;17.85;10.50;;;8.70;99.90;;;;;;5102611;28;20024;-68
2022/04/17 06:10:10;;;;;;;15.95;9.55;;;8.70;99.90;;;;;;5104805;28;20055;-68
2022/04/17 06:12:37;;;;;;;15.07;9.57;;;9.20;99.90;;;;;;5103393;28;20024;-68
2022/04/17 06:15:04;;;;;;;14.85;9.75;;;9.30;99.90;;;;;;5103146;28;20107;-67
2022/04/17 06:17:41;;;;;;;18.42;10.32;;;9.70;99.90;;;;;;5086108;28;20020;-67
2022/04/17 06:20:09;;;;;;;17.05;9.68;;;10.50;99.90;;;;;;5083790;28;20036;-68
2022/04/17 06:22:36;;;;;;;14.93;9.63;;;11.30;99.80;;;;;;5104609;28;20020;-69
2022/04/17 06:25:06;;;;;;;16.38;9.68;;;12.10;91.30;;;;;;5102514;28;20439;-68
2022/04/17 06:27:46;;;;;;;16.08;9.43;;;12.50;90.30;;;;;;5104273;28;20027;-68
2022/04/17 06:30:21;;;;;;;16.92;9.60;;;11.90;81.00;;;;;;5104147;28;20056;-67
2022/04/17 06:32:48;;;;;;;16.02;9.95;;;12.70;86.90;;;;;;5102053;28;20115;-68
2022/04/17 06:35:15;;;;;;;16.15;9.60;;;13.60;72.10;;;;;;5104353;28;20024;-68
2022/04/17 06:37:49;;;;;;;15.23;9.02;;;13.60;66.30;;;;;;5102070;28;20042;-69
2022/04/17 06:40:16;;;;;;;14.68;9.60;;;14.10;69.50;;;;;;5104114;28;20031;-69
2022/04/17 06:42:42;;;;;;;13.73;9.68;;;14.70;61.50;;;;;;5103182;28;20053;-68
2022/04/17 06:45:08;;;;;;;12.52;8.77;;;15.40;62.10;;;;;;5102437;28;20024;-68
2022/04/17 06:47:34;;;;;;;16.25;9.48;;;16.60;57.90;;;;;;5104018;28;20482;-69
2022/04/17 06:50:00;;;;;;;16.10;9.55;;;16.40;53.60;;;;;;5101861;28;20031;-69
2022/04/17 06:52:25;;;;;;;17.08;9.50;;;17.00;55.40;;;;;;5103931;28;20137;-69
2022/04/17 06:54:51;;;;;;;14.02;9.00;;;17.00;55.40;;;;;;5101399;28;20052;-69
2022/04/17 06:57:16;;;;;;;12.63;8.43;;;15.50;52.00;;;;;;5103689;28;20035;-69
2022/04/17 06:59:42;;;;;;;16.40;9.73;;;15.50;57.20;;;;;;5102584;28;20028;-69
2022/04/17 07:02:08;;;;;;;14.25;9.38;;;15.00;55.50;;;;;;5103018;28;20028;-69
2022/04/17 07:04:33;;;;;;;15.20;9.52;;;14.10;59.70;;;;;;5102929;28;20074;-68
2022/04/17 07:06:59;;;;;;;16.55;9.80;;;14.20;61.70;;;;;;5101640;28;20043;-69
2022/04/17 07:09:25;;;;;;;15.85;9.55;;;14.60;70.10;;;;;;5103644;28;20331;-69
2022/04/17 07:11:51;;;;;;;14.27;9.02;;;13.50;61.60;;;;;;5101577;28;20101;-69
2022/04/17 07:14:16;;;;;;;15.35;9.73;;;13.90;73.80;;;;;;5102959;28;20450;-69
2022/04/17 07:16:43;;;;;;;14.35;8.75;;;13.80;68.40;;;;;;5101857;28;20048;-68
2022/04/17 07:19:09;;;;;;;14.82;9.60;;;13.60;69.80;;;;;;5102887;28;20028;-68
2022/04/17 07:21:34;;;;;;;15.85;8.88;;;13.80;76.60;;;;;;5103293;28;20066;-68
2022/04/17 07:24:01;;;;;;;13.25;8.98;;;14.80;73.10;;;;;;5101507;28;20062;-69
2022/04/17 07:26:28;;;;;;;15.02;8.95;;;15.10;71.60;;;;;;5103319;28;20074;-69
2022/04/17 07:28:53;;;;;;;13.52;8.07;;;15.10;68.40;;;;;;5101381;28;20084;-69
2022/04/17 07:31:19;;;;;;;18.27;10.02;;;15.60;71.90;;;;;;5103404;28;20024;-67
2022/04/17 07:33:45;;;;;;;13.60;9.32;;;15.90;65.10;;;;;;5101251;28;20067;-68
2022/04/17 07:36:11;;;;;;;14.10;8.60;;;15.90;62.10;;;;;;5102979;28;20024;-68
2022/04/17 07:38:37;;;;;;;15.50;8.25;;;16.50;58.60;;;;;;5102780;28;20036;-68
2022/04/17 07:41:03;;;;;;;15.60;8.48;;;16.40;57.30;;;;;;5083242;28;20054;-68
2022/04/17 07:43:29;;;;;;;13.02;8.05;;;16.50;56.70;;;;;;5103573;28;20096;-68
2022/04/17 07:45:54;;;;;;;12.50;8.45;;;16.80;54.20;;;;;;5082283;28;20032;-68
2022/04/17 07:48:20;;;;;;;13.75;7.93;;;18.00;52.60;;;;;;5103137;28;20031;-68
2022/04/17 07:50:46;;;;;;;12.50;8.00;;;18.70;47.20;;;;;;5101079;28;20044;-68
2022/04/17 07:53:11;;;;;;;13.38;8.32;;;20.20;49.00;;;;;;5102852;28;20067;-68
2022/04/17 07:55:37;;;;;;;11.88;7.47;;;21.00;46.10;;;;;;5101963;28;20044;-68
2022/04/17 08:00:32;;;;;;;13.95;7.65;;;22.50;41.90;;;;;;5102978;28;20024;-68
2022/04/17 08:05:56;;;;;;;13.20;7.85;;;23.40;40.50;;;;;;5034866;28;20036;-69
2022/04/17 08:08:22;;;;;;;11.20;7.85;;;22.90;39.60;;;;;;5101772;28;20024;-66
2022/04/17 08:10:48;;;;;;;11.40;7.75;;;23.20;37.20;;;;;;5101519;28;20028;-67
2022/04/17 08:13:14;;;;;;;11.98;7.32;;;21.80;36.30;;;;;;5102666;28;20021;-67
2022/04/17 08:15:40;;;;;;;10.95;7.50;;;22.80;40.20;;;;;;5082878;28;20424;-67
2022/04/17 08:18:06;;;;;;;10.05;6.72;;;23.40;35.10;;;;;;5106948;28;20024;-67
2022/04/17 08:20:31;;;;;;;13.23;7.38;;;21.10;35.10;;;;;;5053167;28;20087;-67
2022/04/17 08:22:57;;;;;;;10.15;6.50;;;22.80;37.80;;;;;;5106781;28;20032;-67
2022/04/17 08:25:23;;;;;;;11.80;7.38;;;24.10;39.00;;;;;;5087366;28;20024;-66
2022/04/17 08:27:55;;;;;;;11.13;6.93;;;23.70;34.50;;;;;;5087730;28;20026;-67
2022/04/17 08:30:26;;;;;;;11.18;5.85;;;23.90;33.20;;;;;;5106618;28;20092;-68
2022/04/17 08:32:52;;;;;;;13.67;6.57;;;23.70;32.50;;;;;;5104477;28;20024;-67
2022/04/17 08:35:18;;;;;;;10.55;6.35;;;25.20;31.10;;;;;;5088055;28;20032;-67
2022/04/17 08:37:44;;;;;;;11.15;5.78;;;23.70;32.00;;;;;;5104553;28;20042;-67
2022/04/17 08:40:11;;;;;;;10.68;5.43;;;23.20;32.10;;;;;;5087938;28;20020;-68
2022/04/17 08:42:38;;;;;;;11.32;5.93;;;23.80;35.80;;;;;;5105300;28;20024;-68
2022/04/17 08:45:04;;;;;;;8.02;5.13;;;25.00;34.70;;;;;;5104798;28;20020;-68
2022/04/17 08:47:31;;;;;;;10.20;5.43;;;26.40;34.10;;;;;;5087956;28;20036;-67
2022/04/17 08:49:59;;;;;;;9.52;5.57;;;26.90;32.40;;;;;;5104048;28;20031;-66
2022/04/17 08:52:25;;;;;;;11.05;6.10;;;27.50;33.30;;;;;;5105575;28;20035;-67
2022/04/17 08:54:51;;;;;;;10.98;5.60;;;25.70;30.00;;;;;;5103736;28;20079;-67
2022/04/17 08:57:17;;;;;;;7.88;5.07;;;26.50;30.40;;;;;;5106334;28;20050;-67
2022/04/17 08:59:43;;;;;;;9.00;5.00;;;27.40;30.60;;;;;;5086803;28;20024;-67
2022/04/17 09:02:13;;;;;;;10.27;5.65;;;27.90;31.20;;;;;;5104934;28;20023;-68
2022/04/17 09:04:43;;;;;;;11.65;5.93;;;27.60;30.60;;;;;;5106153;28;20020;-67
2022/04/17 09:07:10;;;;;;;9.65;5.60;;;28.00;30.80;;;;;;5103928;28;20028;-67
2022/04/17 09:09:52;;;;;;;8.52;5.18;;;27.70;29.90;;;;;;5087590;28;20557;-67
2022/04/17 09:12:26;;;;;;;10.05;5.32;;;27.60;31.80;;;;;;5104152;28;20043;-67
2022/04/17 09:14:55;;;;;;;9.32;5.75;;;26.70;32.00;;;;;;5104453;28;20028;-67
2022/04/17 09:17:33;;;;;;;10.20;5.70;;;26.10;32.10;;;;;;5105612;28;20031;-67
2022/04/17 09:20:00;;;;;;;9.38;5.75;;;25.00;32.70;;;;;;5085433;28;20028;-67
2022/04/17 09:22:45;;;;;;;10.30;5.85;;;24.30;33.10;;;;;;5105674;28;20021;-67
2022/04/17 09:25:12;;;;;;;9.38;5.90;;;23.50;35.00;;;;;;5103926;28;20034;-67
2022/04/17 09:27:41;;;;;;;11.25;6.63;;;22.60;34.60;;;;;;5104427;28;20053;-67
2022/04/17 09:30:29;;;;;;;10.27;6.55;;;22.30;34.40;;;;;;5105422;28;20031;-67
2022/04/17 09:32:56;;;;;;;11.45;6.70;;;21.30;37.40;;;;;;5085128;28;20115;-67
2022/04/17 09:35:26;;;;;;;9.35;6.13;;;22.40;38.10;;;;;;5105508;28;20028;-67
2022/04/17 09:37:56;;;;;;;11.45;6.60;;;22.60;39.00;;;;;;5085144;28;20024;-65
2022/04/17 09:40:22;;;;;;;9.30;5.80;;;21.60;38.70;;;;;;5087339;28;20036;-66
2022/04/17 09:42:48;;;;;;;10.48;6.68;;;22.60;40.10;;;;;;5086574;28;20032;-66
2022/04/17 09:45:14;;;;;;;11.32;6.70;;;22.10;37.20;;;;;;5085205;28;20031;-67
2022/04/17 09:47:40;;;;;;;10.80;6.25;;;23.00;35.80;;;;;;5087173;28;20728;-67
2022/04/17 09:50:08;;;;;;;9.65;6.03;;;23.00;37.50;;;;;;5103110;28;20013;-67
2022/04/17 09:52:40;;;;;;;10.38;6.22;;;23.30;32.30;;;;;;5105013;28;20070;-67
2022/04/17 09:55:06;;;;;;;11.10;6.90;;;23.60;33.50;;;;;;5103126;28;20052;-67
2022/04/17 09:57:34;;;;;;;11.55;5.78;;;24.60;32.40;;;;;;5104781;28;20024;-67
2022/04/17 10:00:18;;;;;;;9.93;5.70;;;25.80;34.00;;;;;;5086703;28;20043;-67
2022/04/17 10:02:47;;;;;;;9.25;5.75;;;26.80;33.40;;;;;;5085215;28;20035;-67
2022/04/17 10:05:15;;;;;;;9.25;5.80;;;27.10;31.30;;;;;;5107126;28;20024;-67
2022/04/17 10:07:44;;;;;;;10.13;6.25;;;25.70;29.00;;;;;;5103944;28;20111;-68
2022/04/17 10:10:11;;;;;;;9.57;5.20;;;25.70;28.80;;;;;;5104893;28;20084;-68
2022/04/17 10:12:39;;;;;;;8.20;4.85;;;25.00;29.20;;;;;;5103946;28;20028;-67
2022/04/17 10:15:07;;;;;;;7.97;5.03;;;25.70;32.30;;;;;;5103107;28;20061;-66
2022/04/17 10:17:34;;;;;;;8.43;4.63;;;26.70;30.30;;;;;;5104778;28;20112;-67
2022/04/17 10:20:08;;;;;;;8.32;4.90;;;28.20;30.30;;;;;;5102825;28;20054;-66
2022/04/17 10:22:38;;;;;;;9.32;5.30;;;27.70;29.80;;;;;;5086486;28;20043;-67
2022/04/17 10:25:06;;;;;;;8.88;4.63;;;28.60;27.60;;;;;;5102791;28;20095;-66
2022/04/17 10:27:44;;;;;;;10.13;5.05;;;29.10;27.60;;;;;;5104381;28;20059;-68
2022/04/17 10:30:21;;;;;;;8.60;4.82;;;29.70;28.70;;;;;;5104400;28;20054;-67
2022/04/17 10:33:24;;;;;;;7.70;4.72;;;28.50;28.50;;;;;;5102509;28;20031;-67
2022/04/17 10:36:15;;;;;;;8.95;5.65;;;29.90;27.80;;;;;;5088685;28;20050;-67
2022/04/17 10:39:08;;;;;;;9.05;5.30;;;26.80;26.70;;;;;;5104175;28;20103;-67
2022/04/17 10:41:34;;;;;;;7.75;4.88;;;27.70;28.20;;;;;;5102118;28;20035;-67
2022/04/17 10:43:59;;;;;;;9.30;5.05;;;28.30;29.20;;;;;;5104286;28;20024;-69
2022/04/17 10:46:26;;;;;;;8.20;4.45;;;28.30;27.60;;;;;;5083540;28;20047;-68
2022/04/17 10:49:01;;;;;;;10.55;6.00;;;29.50;30.00;;;;;;5103969;28;20310;-67
2022/04/17 10:51:30;;;;;;;9.25;6.10;;;29.00;26.90;;;;;;5103850;28;20035;-67
2022/04/17 10:54:09;;;;;;;9.27;5.60;;;28.70;27.70;;;;;;5101890;28;20052;-67
2022/04/17 10:56:40;;;;;;;8.95;5.28;;;28.40;27.10;;;;;;5104047;28;20058;-67
2022/04/17 10:59:17;;;;;;;10.50;5.47;;;29.80;29.30;;;;;;5101848;28;20041;-67
2022/04/17 11:01:43;;;;;;;8.13;4.90;;;29.90;28.30;;;;;;5103517;28;20469;-67
2022/04/17 11:04:22;;;;;;;8.63;5.15;;;30.30;26.90;;;;;;5103334;28;20022;-68
2022/04/17 11:07:03;;;;;;;8.43;4.50;;;29.60;26.50;;;;;;5101985;28;20366;-67
2022/04/17 11:09:29;;;;;;;7.28;4.47;;;28.10;26.50;;;;;;5103758;28;20031;-67
2022/04/17 11:12:28;;;;;;;7.55;4.40;;;28.50;28.40;;;;;;5101425;28;20107;-66
2022/04/17 11:15:02;;;;;;;8.52;4.20;;;29.30;29.00;;;;;;5102296;28;20043;-67
2022/04/17 11:17:29;;;;;;;7.68;4.10;;;29.50;28.60;;;;;;5103814;28;20035;-66
2022/04/17 11:19:57;;;;;;;8.00;5.18;;;29.00;27.50;;;;;;5083270;28;20095;-67
2022/04/17 11:22:27;;;;;;;8.93;4.55;;;26.90;25.50;;;;;;5103719;28;20027;-68
2022/04/17 11:25:00;;;;;;;7.15;4.25;;;26.70;29.10;;;;;;5101428;28;20489;-67
2022/04/17 11:27:32;;;;;;;9.00;5.05;;;25.90;28.20;;;;;;5103230;28;20495;-67
2022/04/17 11:30:02;;;;;;;8.55;5.00;;;27.50;30.10;;;;;;5103034;28;20462;-66
2022/04/17 11:32:28;;;;;;;9.10;4.33;;;26.90;28.30;;;;;;5083656;28;20012;-67
2022/04/17 11:34:55;;;;;;;8.32;4.63;;;27.90;30.60;;;;;;5103227;28;20036;-67
2022/04/17 11:37:41;;;;;;;8.77;4.82;;;27.80;27.90;;;;;;5101051;28;20035;-66
2022/04/17 11:40:14;;;;;;;7.15;4.20;;;26.30;26.10;;;;;;5103119;28;20032;-66
2022/04/17 11:43:07;;;;;;;8.05;4.70;;;26.70;30.00;;;;;;5102865;28;20028;-66
2022/04/17 11:45:33;;;;;;;9.90;4.78;;;26.80;28.70;;;;;;5100539;28;20020;-67
2022/04/17 11:48:04;;;;;;;8.25;4.50;;;27.10;30.00;;;;;;5102514;28;20081;-68
2022/04/17 11:50:30;;;;;;;8.38;4.65;;;27.30;29.10;;;;;;5100640;28;20471;-67
2022/04/17 11:52:59;;;;;;;8.65;5.55;;;27.50;29.00;;;;;;5102974;28;20028;-67
2022/04/17 11:55:29;;;;;;;8.60;4.97;;;25.50;28.00;;;;;;5101919;28;20044;-67
2022/04/17 11:57:55;;;;;;;8.60;5.50;;;24.40;28.20;;;;;;5084242;28;20043;-67
2022/04/17 12:00:22;;;;;;;8.95;5.80;;;23.70;28.90;;;;;;5084773;28;20493;-67
2022/04/17 12:02:53;;;;;;;10.10;5.13;;;23.40;29.80;;;;;;5082752;28;20043;-67
2022/04/17 12:05:20;;;;;;;9.45;5.00;;;23.10;30.30;;;;;;5103179;28;20020;-67
2022/04/17 12:08:01;;;;;;;8.40;5.20;;;23.40;32.30;;;;;;5101013;28;20040;-67
2022/04/17 12:10:26;;;;;;;;;;;22.40;30.60;;;;;;5103062;28;20020;-67
2022/04/17 12:12:52;;;;;;;8.57;5.30;;;23.10;31.20;;;;;;5102598;28;19930;-67
2022/04/17 12:15:18;;;;;;;9.18;5.40;;;22.50;31.00;;;;;;5100692;28;20028;-67
2022/04/17 12:17:43;;;;;;;7.93;4.88;;;23.60;30.80;;;;;;5102869;28;20016;-67
2022/04/17 12:20:15;;;;;;;9.93;5.30;;;23.90;32.00;;;;;;5100705;28;20028;-67
2022/04/17 12:22:43;;;;;;;9.15;5.63;;;24.00;30.00;;;;;;5102703;28;20028;-67
2022/04/17 12:25:21;;;;;;;8.43;4.55;;;24.70;30.30;;;;;;5101070;28;20032;-67
2022/04/17 12:27:47;;;;;;;9.23;5.53;;;25.00;29.50;;;;;;5101758;28;20040;-67
2022/04/17 12:30:17;;;;;;;8.80;4.93;;;23.80;28.00;;;;;;5102879;28;20042;-67
2022/04/17 12:32:46;;;;;;;9.60;5.35;;;24.70;30.60;;;;;;5100612;28;20028;-66
2022/04/17 12:35:19;;;;;;;8.13;5.07;;;24.60;30.70;;;;;;5102794;28;20037;-67
2022/04/17 12:37:45;;;;;;;9.13;5.30;;;25.80;31.30;;;;;;5100507;28;20054;-67
2022/04/17 12:40:13;;;;;;;9.02;5.05;;;25.10;28.20;;;;;;5102580;28;20135;-67
2022/04/17 12:42:40;;;;;;;10.55;5.30;;;25.10;31.90;;;;;;5083492;28;20579;-67
2022/04/17 12:45:07;;;;;;;8.85;5.30;;;23.90;30.40;;;;;;5100604;28;20027;-67
2022/04/17 12:47:36;;;;;;;8.80;4.75;;;24.20;31.40;;;;;;5102431;28;20154;-67
2022/04/17 12:50:05;;;;;;;8.27;5.43;;;24.50;30.80;;;;;;5082412;28;20024;-67
2022/04/17 12:52:31;;;;;;;8.75;4.95;;;23.10;29.80;;;;;;5102415;28;20020;-68
2022/04/17 12:54:59;;;;;;;9.75;5.60;;;23.10;31.80;;;;;;5100316;28;20084;-67
2022/04/17 12:57:25;;;;;;;11.57;5.82;;;23.50;32.70;;;;;;5102011;28;20047;-66
2022/04/17 12:59:52;;;;;;;10.50;6.47;;;24.00;30.70;;;;;;5101776;28;20033;-67
2022/04/17 13:02:27;;;;;;;9.88;6.60;;;23.20;31.60;;;;;;5100926;28;20437;-66
2022/04/17 13:04:59;;;;;;;9.38;5.70;;;22.50;32.10;;;;;;5105954;28;20051;-67
2022/04/17 13:07:34;;;;;;;10.32;6.40;;;22.40;32.20;;;;;;5103830;28;20381;-67